To NAV CANADA Home Page Login to a new session Search on AWWS site Feedback and Comments Disclaimer Vers la page française équivalente Tips FAQ What's new on the site To the Forecasts and Observations / NOTAM section To "File a Flight Plan" website Publications and other links Update of the User's profile FIC Telephone Numbers My Weather Data Folder Route Weather Data Regional Weather Data Local Weather Data To the Forecasts and Observations / NOTAM section
Request Generated 05/25/2017 at 01:07:48 UTC . Weather information available at that time is displayed.

METAR/TAF

COMOX/BC    

METAR CYQQ 250100Z 36017G24KT 20SM FEW040 15/08 A2994 RMK CU1 SLP140=
METAR CYQQ 250000Z 35015G21KT 20SM FEW040 16/08 A2995 RMK CU0 SLP142=
METAR CYQQ 242300Z 36016G21KT 20SM FEW035 FEW250 16/09 A2996 RMK CU1CI1 SLP147=

TAF CYQQ 242339Z 2500/2524 36012G22KT P6SM SKC
BECMG 2502/2504 32010G20KT
FM251200 33010KT P6SM SKC
FM251800 36008KT P6SM SCT080
BECMG 2518/2520 04008KT
RMK NXT FCST BY 250600Z=
Your time UTC time
Weather data provided by Environment Canada and NAV CANADA